Time;durP1;ratioP1;P1;durP2;ratioP2;P2;SDS_P1;SDS_P2;PMS_P1;PMS_P2;Temp;Humidity;BMP_temperature;BMP_pressure;BME280_temperature;BME280_humidity;BME280_pressure;Samples;Min_cycle;Max_cycle;Signal;HPM_P1;HPM_P2
2022/05/02 00:04:02;;;;;;;7.80;5.80;;;9.50;99.90;;;10.45;100.00;98346.94;4986864;28;20552;-76
2022/05/02 00:07:00;;;;;;;8.50;5.40;;;9.50;99.90;;;10.42;100.00;98357.75;5002870;28;21183;-76
2022/05/02 00:09:33;;;;;;;11.80;5.90;;;9.50;99.90;;;10.40;100.00;98348.47;4997430;28;20463;-77
2022/05/02 00:13:01;;;;;;;11.67;5.67;;;9.40;99.90;;;10.37;100.00;98352.28;5001459;28;20598;-76
2022/05/02 00:15:34;;;;;;;11.37;6.10;;;9.40;99.90;;;10.31;100.00;98345.13;5001834;28;21321;-76
2022/05/02 00:18:21;;;;;;;10.60;5.20;;;9.30;99.90;;;10.28;100.00;98349.88;4997540;28;20463;-77
2022/05/02 00:21:02;;;;;;;8.80;5.70;;;9.30;99.90;;;10.23;100.00;98337.38;4998112;28;20551;-76
2022/05/02 00:23:39;;;;;;;8.10;5.53;;;9.30;99.90;;;10.23;100.00;98347.00;5000088;28;20456;-76
2022/05/02 00:29:31;;;;;;;12.30;6.03;;;9.30;99.90;;;10.11;100.00;98336.94;4986946;28;20839;-76
2022/05/02 00:32:55;;;;;;;11.77;5.80;;;9.20;99.90;;;10.12;100.00;98332.53;4970825;28;20511;-77
2022/05/02 00:35:36;;;;;;;8.27;5.13;;;9.20;99.90;;;10.08;100.00;98329.47;4925626;29;20606;-77
2022/05/02 00:38:07;;;;;;;13.30;5.50;;;9.20;99.90;;;10.04;100.00;98328.19;4945520;28;20690;-76
2022/05/02 00:41:36;;;;;;;8.43;5.23;;;9.10;99.90;;;9.99;100.00;98329.72;4982360;28;20466;-77
2022/05/02 00:44:15;;;;;;;8.57;6.37;;;9.10;99.90;;;9.93;100.00;98335.63;4926476;29;20482;-76
2022/05/02 00:46:57;;;;;;;11.13;6.63;;;9.10;99.90;;;9.89;100.00;98327.31;4926870;29;20470;-76
2022/05/02 00:50:08;;;;;;;11.67;5.20;;;9.10;99.90;;;9.89;100.00;98318.69;4925239;29;20478;-77
2022/05/02 00:53:39;;;;;;;7.93;5.73;;;9.00;99.90;;;9.88;100.00;98317.06;4912458;29;20508;-77
2022/05/02 00:56:20;;;;;;;7.80;6.00;;;8.90;99.90;;;9.85;100.00;98317.41;4914413;29;20467;-77
2022/05/02 00:59:25;;;;;;;8.43;5.47;;;8.90;99.90;;;9.84;100.00;98321.84;4941105;28;20616;-76
2022/05/02 01:02:17;;;;;;;6.90;5.80;;;8.80;99.90;;;9.84;100.00;98315.78;4977002;28;21080;-77
2022/05/02 01:12:01;;;;;;;6.37;5.07;;;8.70;99.90;;;9.65;100.00;98321.50;4955195;28;20631;-77
2022/05/02 01:14:48;;;;;;;7.37;5.80;;;8.70;99.90;;;9.62;100.00;98317.41;4974127;28;20868;-76
2022/05/02 01:17:32;;;;;;;10.93;6.47;;;8.80;99.90;;;9.68;100.00;98315.94;4967960;28;20467;-76
2022/05/02 01:20:54;;;;;;;7.43;5.83;;;8.70;99.90;;;9.70;100.00;98313.94;4987842;28;20931;-77
2022/05/02 01:24:09;;;;;;;6.90;5.30;;;8.70;99.90;;;9.68;100.00;98310.69;5041988;28;20575;-76
2022/05/02 01:26:39;;;;;;;8.20;5.63;;;8.80;99.90;;;9.66;100.00;98313.47;4998154;28;20546;-76
2022/05/02 01:29:48;;;;;;;8.40;5.40;;;8.70;99.90;;;9.67;100.00;98317.72;4998544;28;21254;-77
2022/05/02 01:32:37;;;;;;;8.83;5.80;;;8.70;99.90;;;9.57;100.00;98315.34;4994827;28;20494;-76
2022/05/02 01:41:01;;;;;;;7.33;5.13;;;8.60;99.90;;;9.40;100.00;98310.41;5024243;28;20537;-77
2022/05/02 01:43:55;;;;;;;9.80;5.90;;;8.60;99.90;;;9.37;100.00;98308.94;5042861;28;20468;-77
2022/05/02 01:47:40;;;;;;;10.97;5.30;;;8.60;99.90;;;9.39;100.00;98309.59;5041365;28;20461;-76
2022/05/02 01:50:22;;;;;;;8.90;5.90;;;8.50;99.90;;;9.40;100.00;98313.84;4980269;28;20471;-76
2022/05/02 01:53:00;;;;;;;8.30;5.27;;;8.50;99.90;;;9.34;100.00;98308.47;4979214;28;20460;-76
2022/05/02 01:56:21;;;;;;;11.03;5.53;;;8.50;99.90;;;9.34;100.00;98308.47;4974188;28;20492;-76
2022/05/02 01:59:06;;;;;;;7.40;5.20;;;8.50;99.90;;;9.30;100.00;98302.00;4981888;28;20504;-76
2022/05/02 02:01:47;;;;;;;6.83;5.60;;;8.50;99.90;;;9.25;100.00;98310.31;5027357;28;20465;-76
2022/05/02 02:07:45;;;;;;;7.57;5.30;;;8.40;99.90;;;9.21;100.00;98298.59;5036468;28;20474;-76
2022/05/02 02:10:40;;;;;;;8.00;5.20;;;8.40;99.90;;;9.21;100.00;98295.16;5036880;28;20495;-76
2022/05/02 02:13:32;;;;;;;6.53;5.30;;;8.40;99.90;;;9.20;100.00;98294.34;4998227;28;20459;-76
2022/05/02 02:16:53;;;;;;;6.70;5.20;;;8.40;99.90;;;9.16;100.00;98290.50;4996609;28;20465;-77
2022/05/02 02:19:37;;;;;;;11.50;5.57;;;8.30;99.90;;;9.18;100.00;98292.91;4996106;28;21036;-76
2022/05/02 02:22:18;;;;;;;7.87;5.87;;;8.20;99.90;;;9.18;100.00;98298.94;4997867;28;20480;-76
2022/05/02 02:24:54;;;;;;;7.20;5.40;;;8.20;99.90;;;9.14;100.00;98291.63;4997461;28;20460;-76
2022/05/02 02:27:24;;;;;;;6.67;5.00;;;8.20;99.90;;;9.13;100.00;98290.81;4993280;28;20475;-76
2022/05/02 02:33:14;;;;;;;7.83;5.60;;;8.10;99.90;;;8.98;100.00;98293.34;4955891;28;21216;-77
2022/05/02 02:36:00;;;;;;;7.10;5.27;;;8.20;99.90;;;8.95;100.00;98304.13;4958773;28;20469;-77
2022/05/02 02:38:36;;;;;;;7.00;5.47;;;8.10;99.90;;;8.94;100.00;98296.47;4960659;28;20969;-76
2022/05/02 02:44:34;;;;;;;7.23;4.70;;;8.10;99.90;;;8.93;100.00;98290.44;5021380;28;20453;-76
2022/05/02 02:47:18;;;;;;;8.10;5.20;;;8.00;99.90;;;8.93;100.00;98292.22;5041617;28;20505;-76
2022/05/02 02:49:59;;;;;;;6.00;5.03;;;8.00;99.90;;;8.91;100.00;98281.16;5038314;28;20479;-76
2022/05/02 02:56:00;;;;;;;17.20;8.83;;;7.90;99.90;;;8.78;100.00;98281.69;4999163;28;20464;-86
2022/05/02 02:58:28;;;;;;;7.87;5.80;;;8.00;99.90;;;8.80;100.00;98274.53;5035955;28;20460;-77
2022/05/02 03:01:17;;;;;;;7.00;5.43;;;7.90;99.90;;;8.83;100.00;98278.59;5025879;28;20470;-76
2022/05/02 03:07:35;;;;;;;9.50;5.80;;;7.90;99.90;;;8.80;100.00;98271.09;5041048;28;20457;-76
2022/05/02 03:10:28;;;;;;;9.20;6.23;;;8.00;99.90;;;8.75;100.00;98273.41;5030482;28;20542;-84
2022/05/02 03:13:09;;;;;;;6.17;5.17;;;8.10;99.90;;;8.73;100.00;98264.94;5040874;28;20477;-76
2022/05/02 03:20:09;;;;;;;7.77;4.90;;;7.90;99.90;;;8.76;100.00;98269.81;5016566;28;20514;-77
2022/05/02 03:22:39;;;;;;;8.20;5.20;;;7.90;99.90;;;8.77;100.00;98266.22;5041642;28;20507;-76
2022/05/02 03:25:09;;;;;;;7.37;5.37;;;7.80;99.90;;;8.78;100.00;98260.03;5039334;28;21038;-76
2022/05/02 03:27:39;;;;;;;7.10;5.03;;;7.90;99.90;;;8.72;100.00;98260.69;5042951;28;20511;-76
2022/05/02 03:30:10;;;;;;;10.50;6.07;;;7.90;99.90;;;8.67;100.00;98263.03;5040548;28;20450;-77
2022/05/02 03:32:40;;;;;;;8.13;5.50;;;7.90;99.90;;;8.65;100.00;98262.34;5036312;28;20835;-82
2022/05/02 03:35:12;;;;;;;16.03;10.10;;;7.90;99.90;;;8.65;100.00;98260.56;5038207;28;20885;-76
2022/05/02 03:37:42;;;;;;;6.83;6.10;;;7.80;99.90;;;8.67;100.00;98257.81;5045285;28;20457;-76
2022/05/02 03:40:13;;;;;;;11.33;6.40;;;7.70;99.90;;;8.62;100.00;98254.88;5042691;28;20472;-77
2022/05/02 03:42:42;;;;;;;10.60;6.50;;;7.70;99.90;;;8.57;100.00;98245.78;5045217;28;20472;-76
2022/05/02 03:45:12;;;;;;;9.40;5.93;;;7.80;99.90;;;8.58;100.00;98250.00;5047772;28;20506;-76
2022/05/02 03:47:43;;;;;;;10.07;5.33;;;7.70;99.90;;;8.54;100.00;98251.31;5043234;28;20485;-76
2022/05/02 03:50:15;;;;;;;11.53;5.63;;;7.70;99.90;;;8.50;100.00;98251.84;5044876;28;20524;-76
2022/05/02 03:52:44;;;;;;;11.97;6.93;;;7.70;99.90;;;8.49;100.00;98245.00;5047311;28;20517;-84
2022/05/02 03:55:14;;;;;;;7.73;5.30;;;7.70;99.90;;;8.43;100.00;98253.50;5045335;28;20470;-76
2022/05/02 03:57:43;;;;;;;13.03;6.00;;;7.70;99.90;;;8.44;100.00;98252.50;5042780;28;20461;-76
2022/05/02 04:00:16;;;;;;;11.20;6.23;;;7.60;99.90;;;8.44;100.00;98250.72;5042230;28;20457;-76
2022/05/02 04:02:53;;;;;;;8.27;5.43;;;7.60;99.90;;;8.42;100.00;98247.47;5044713;28;20455;-76
2022/05/02 04:05:25;;;;;;;7.83;5.53;;;7.60;99.90;;;8.36;100.00;98255.16;5044655;28;20445;-76
2022/05/02 04:07:56;;;;;;;5.83;4.83;;;7.60;99.90;;;8.33;100.00;98251.06;5044098;28;20453;-76
2022/05/02 04:10:26;;;;;;;8.57;4.90;;;7.50;99.90;;;8.34;100.00;98247.50;5045345;28;20441;-76
2022/05/02 04:12:56;;;;;;;8.87;5.70;;;7.50;99.90;;;8.26;100.00;98249.28;5045822;28;20509;-76
2022/05/02 04:15:26;;;;;;;11.73;5.17;;;7.50;99.90;;;8.20;100.00;98253.38;5042745;28;20472;-76
2022/05/02 04:17:58;;;;;;;13.00;5.50;;;7.50;99.90;;;8.20;100.00;98253.38;5044361;28;20450;-76
2022/05/02 04:20:28;;;;;;;7.10;5.77;;;7.40;99.90;;;8.17;100.00;98240.69;5044339;28;20992;-76
2022/05/02 04:23:00;;;;;;;6.90;4.97;;;7.50;99.90;;;8.16;100.00;98248.69;5043408;28;20556;-76
2022/05/02 04:25:30;;;;;;;13.80;5.50;;;7.40;99.90;;;8.13;100.00;98241.16;5042349;28;20496;-76
2022/05/02 04:27:59;;;;;;;10.47;5.47;;;7.40;99.90;;;8.12;100.00;98252.59;5043224;28;20469;-81
2022/05/02 04:30:28;;;;;;;10.20;5.17;;;7.30;99.90;;;8.13;100.00;98249.81;5043114;28;20462;-76
2022/05/02 04:32:59;;;;;;;6.30;5.23;;;7.30;99.90;;;8.17;100.00;98256.31;5041963;28;20578;-76
2022/05/02 04:35:30;;;;;;;15.03;5.10;;;7.30;99.90;;;8.18;100.00;98257.13;5045307;28;20497;-76
2022/05/02 04:38:01;;;;;;;9.57;5.90;;;7.30;99.90;;;8.15;100.00;98253.06;5043932;28;20529;-76
2022/05/02 04:40:31;;;;;;;10.53;5.70;;;7.30;99.90;;;8.16;100.00;98254.66;5041597;28;20457;-76
2022/05/02 04:43:01;;;;;;;7.47;5.57;;;7.30;99.90;;;8.16;100.00;98265.09;5045595;28;20464;-76
2022/05/02 04:45:31;;;;;;;7.03;5.37;;;7.30;99.90;;;8.12;100.00;98256.00;5044917;28;20454;-76
2022/05/02 04:48:01;;;;;;;6.60;5.23;;;7.30;99.90;;;8.12;100.00;98258.63;5042619;28;20470;-76
2022/05/02 04:50:34;;;;;;;6.47;5.30;;;7.30;99.90;;;8.06;100.00;98259.25;5042243;28;20567;-80
2022/05/02 04:53:04;;;;;;;13.50;5.83;;;7.40;99.90;;;8.08;100.00;98257.31;5044138;28;20822;-76
2022/05/02 04:55:34;;;;;;;8.60;5.20;;;7.30;99.90;;;8.09;100.00;98254.53;5043491;28;20454;-76
2022/05/02 04:58:03;;;;;;;8.37;6.07;;;7.30;99.90;;;8.08;100.00;98262.53;5041781;28;20458;-76
2022/05/02 05:00:32;;;;;;;6.93;5.10;;;7.30;99.90;;;8.08;100.00;98252.94;5041923;28;20543;-76
2022/05/02 05:03:04;;;;;;;7.70;5.40;;;7.20;99.90;;;8.12;100.00;98260.41;5042168;28;20469;-76
2022/05/02 05:05:35;;;;;;;8.77;5.67;;;7.20;99.90;;;8.12;100.00;98258.63;5041603;28;20492;-77
2022/05/02 05:08:05;;;;;;;8.03;5.70;;;7.20;99.90;;;8.13;100.00;98256.78;5045006;28;20493;-76
2022/05/02 05:10:49;;;;;;;8.60;5.00;;;7.20;99.90;;;8.11;100.00;98251.78;5045445;28;20441;-76
2022/05/02 05:13:28;;;;;;;10.37;5.70;;;7.20;99.90;;;8.14;100.00;98256.66;5044037;28;20567;-76
2022/05/02 05:16:37;;;;;;;15.80;6.30;;;7.30;99.90;;;8.17;100.00;98251.09;5045132;28;20491;-76
2022/05/02 05:19:26;;;;;;;11.63;7.33;;;7.20;99.90;;;8.17;100.00;98258.91;5044027;28;20473;-76
2022/05/02 05:22:15;;;;;;;13.73;7.47;;;7.20;99.90;;;8.20;100.00;98249.94;5042467;28;20471;-76
2022/05/02 05:25:31;;;;;;;13.10;6.47;;;7.30;99.90;;;8.23;100.00;98249.59;5043693;28;20515;-76
2022/05/02 05:28:25;;;;;;;12.13;7.87;;;7.30;99.90;;;8.25;100.00;98253.69;5042870;28;20464;-76
2022/05/02 05:31:11;;;;;;;15.10;9.20;;;7.30;99.90;;;8.24;100.00;98251.25;5044186;28;20461;-77
2022/05/02 05:33:52;;;;;;;17.40;7.60;;;7.30;99.90;;;8.27;100.00;98254.31;5042058;28;20481;-76
2022/05/02 05:36:36;;;;;;;12.80;8.13;;;7.30;99.90;;;8.26;100.00;98247.47;5045089;28;20457;-76
2022/05/02 05:39:11;;;;;;;12.50;7.50;;;7.40;99.90;;;8.30;100.00;98245.38;5045204;28;20503;-76
2022/05/02 05:42:01;;;;;;;11.17;6.97;;;7.40;99.90;;;8.35;100.00;98249.13;5045082;28;20461;-76
2022/05/02 05:44:51;;;;;;;9.87;6.07;;;7.40;99.90;;;8.40;100.00;98241.59;5045253;28;20517;-76
2022/05/02 05:48:09;;;;;;;10.30;6.80;;;7.50;99.90;;;8.44;100.00;98229.88;5044366;28;20472;-76
2022/05/02 05:50:49;;;;;;;21.77;6.70;;;7.50;99.90;;;8.48;100.00;98235.56;5044116;28;20488;-76
2022/05/02 05:53:37;;;;;;;7.70;6.13;;;7.50;99.90;;;8.52;100.00;98232.44;5044406;28;21104;-76
2022/05/02 05:56:34;;;;;;;10.10;6.43;;;7.60;99.90;;;8.53;100.00;98241.09;5041755;28;20454;-76
2022/05/02 05:59:10;;;;;;;7.63;6.00;;;7.60;99.90;;;8.55;100.00;98239.94;5044978;28;20976;-76
2022/05/02 06:02:04;;;;;;;11.90;6.47;;;7.60;99.90;;;8.58;100.00;98239.59;5044522;28;20821;-76
2022/05/02 06:04:38;;;;;;;11.57;6.07;;;7.70;99.90;;;8.62;100.00;98244.47;5041454;28;20508;-76
2022/05/02 06:07:10;;;;;;;8.40;6.83;;;7.70;99.90;;;8.64;100.00;98235.50;5044954;28;21128;-77
2022/05/02 06:09:44;;;;;;;10.10;6.67;;;7.80;99.90;;;8.67;100.00;98239.56;5041571;28;20449;-76
2022/05/02 06:12:17;;;;;;;10.90;6.57;;;7.80;99.90;;;8.71;100.00;98240.84;5044473;28;20456;-76
2022/05/02 06:20:30;;;;;;;16.77;6.00;;;8.00;99.90;;;8.86;100.00;98231.31;5042870;28;20457;-77
2022/05/02 06:23:02;;;;;;;9.20;6.30;;;8.00;99.90;;;8.93;100.00;98237.47;5042403;28;20462;-76
2022/05/02 06:25:33;;;;;;;8.37;6.60;;;8.10;99.90;;;8.98;100.00;98235.97;5043520;28;20429;-76
2022/05/02 06:28:08;;;;;;;8.23;6.50;;;8.10;99.90;;;9.05;100.00;98226.47;5043229;28;20462;-76
2022/05/02 06:30:43;;;;;;;11.63;6.93;;;8.20;99.90;;;9.12;100.00;98231.00;5043053;28;20460;-76
2022/05/02 06:33:15;;;;;;;11.80;6.13;;;8.20;99.90;;;9.18;100.00;98231.13;5040899;28;20581;-76
2022/05/02 06:36:12;;;;;;;5.90;5.30;;;8.30;99.90;;;9.25;100.00;98237.25;5041058;28;20465;-77
2022/05/02 06:38:57;;;;;;;6.70;5.90;;;8.40;99.90;;;9.34;100.00;98235.38;5042586;28;20448;-76
2022/05/02 06:42:01;;;;;;;10.77;6.83;;;8.50;99.90;;;9.41;100.00;98234.53;5043570;28;20468;-76
2022/05/02 06:44:50;;;;;;;8.00;6.20;;;8.50;99.90;;;9.49;100.00;98233.66;5044027;28;20446;-77
2022/05/02 06:47:37;;;;;;;8.33;6.37;;;8.60;99.90;;;9.56;100.00;98230.19;5043863;28;20479;-76
2022/05/02 06:50:10;;;;;;;8.43;6.10;;;8.80;99.90;;;9.65;100.00;98232.72;5042823;28;20534;-77
2022/05/02 06:52:57;;;;;;;13.73;6.07;;;8.90;99.90;;;9.71;100.00;98232.00;5045107;28;20445;-76
2022/05/02 06:55:39;;;;;;;11.03;6.07;;;8.90;99.90;;;9.79;100.00;98234.56;5044113;28;21119;-77
2022/05/02 06:58:26;;;;;;;10.60;7.03;;;9.00;99.90;;;9.87;100.00;98235.28;5042612;28;20511;-76
2022/05/02 07:01:07;;;;;;;11.00;7.23;;;9.00;99.90;;;9.94;100.00;98232.78;5042031;28;20465;-77
2022/05/02 07:04:09;;;;;;;16.70;6.27;;;9.10;99.90;;;10.02;100.00;98230.09;5044586;28;20460;-77
2022/05/02 07:07:02;;;;;;;8.43;5.77;;;9.20;99.90;;;10.10;100.00;98227.38;5041454;28;20902;-77
2022/05/02 07:09:46;;;;;;;8.27;5.80;;;9.30;99.90;;;10.19;100.00;98226.34;5044876;28;20876;-76
2022/05/02 07:12:22;;;;;;;9.97;6.63;;;9.40;99.90;;;10.27;100.00;98226.25;5046929;28;20499;-76
2022/05/02 07:15:06;;;;;;;18.43;7.80;;;9.50;99.90;;;10.36;100.00;98225.16;5048506;28;21001;-77
2022/05/02 07:18:07;;;;;;;11.07;7.27;;;9.70;99.90;;;10.49;100.00;98227.94;5048011;28;20540;-76
2022/05/02 07:21:07;;;;;;;14.93;8.20;;;9.80;99.90;;;10.60;100.00;98227.50;5043661;28;20867;-77
2022/05/02 07:23:58;;;;;;;8.73;6.97;;;9.90;99.90;;;10.71;100.00;98225.41;5046608;28;20459;-77
2022/05/02 07:26:32;;;;;;;7.13;6.33;;;10.00;99.90;;;10.80;100.00;98221.66;5045658;28;20462;-77
2022/05/02 07:29:06;;;;;;;11.63;6.67;;;10.20;99.90;;;10.89;100.00;98223.19;5046448;28;20476;-77
2022/05/02 07:31:39;;;;;;;12.70;5.77;;;10.30;99.90;;;10.99;100.00;98223.72;5047208;28;20538;-76
2022/05/02 07:34:15;;;;;;;8.33;6.23;;;10.30;99.90;;;11.06;100.00;98221.97;5045062;28;20533;-77
2022/05/02 07:36:52;;;;;;;13.47;7.37;;;10.40;99.90;;;11.15;100.00;98231.31;5046669;28;20475;-77
2022/05/02 07:39:23;;;;;;;11.60;7.40;;;10.50;99.90;;;11.24;100.00;98225.00;5047693;28;20449;-77
2022/05/02 07:41:53;;;;;;;11.77;7.17;;;10.60;99.90;;;11.32;100.00;98230.06;5045534;28;20465;-77
2022/05/02 07:44:31;;;;;;;8.00;5.90;;;10.70;99.90;;;11.39;100.00;98224.91;5046057;28;20469;-77
2022/05/02 07:47:05;;;;;;;11.47;6.50;;;10.70;99.90;;;11.46;100.00;98228.38;5045975;28;20492;-77
2022/05/02 07:49:41;;;;;;;11.03;6.37;;;10.80;99.90;;;11.53;100.00;98224.84;5044283;28;20475;-76
2022/05/02 07:52:16;;;;;;;15.77;6.50;;;10.90;99.90;;;11.61;100.00;98231.75;5046284;28;20539;-77
2022/05/02 07:54:50;;;;;;;11.53;6.97;;;11.00;99.90;;;11.69;100.00;98230.81;5046020;28;20835;-77
2022/05/02 07:57:24;;;;;;;11.00;6.77;;;11.00;99.90;;;11.76;100.00;98222.03;5045945;28;20457;-77
2022/05/02 08:00:00;;;;;;;15.60;6.70;;;11.10;99.90;;;11.85;100.00;98225.31;5043796;28;20433;-77
2022/05/02 08:02:31;;;;;;;11.40;6.57;;;11.20;99.90;;;11.91;100.00;98230.59;5046077;28;20962;-77
2022/05/02 08:05:02;;;;;;;12.60;6.97;;;11.30;99.90;;;11.96;100.00;98228.25;5045884;28;20464;-77
2022/05/02 08:07:36;;;;;;;8.23;6.13;;;11.40;99.90;;;12.01;100.00;98230.25;5044489;28;20467;-77
2022/05/02 08:10:50;;;;;;;7.97;6.07;;;11.40;99.90;;;12.09;100.00;98219.66;5046785;28;20464;-76
2022/05/02 08:13:44;;;;;;;10.17;6.27;;;11.50;99.90;;;12.17;100.00;98214.25;5047461;28;20952;-77
2022/05/02 08:16:26;;;;;;;10.70;7.03;;;11.60;99.90;;;12.24;100.00;98220.34;5045013;28;20461;-77
2022/05/02 08:19:15;;;;;;;8.47;6.33;;;11.70;99.90;;;12.33;100.00;98219.19;5045234;28;20496;-76
2022/05/02 08:27:15;;;;;;;11.50;8.00;;;11.80;99.90;;;12.43;100.00;98224.88;5045153;28;20489;-76
2022/05/02 08:28:03;;;;;;;12.13;5.70;;;12.10;99.90;;;12.68;100.00;98212.09;5044569;28;20886;-76
2022/05/02 08:30:44;;;;;;;10.20;6.40;;;12.20;99.90;;;12.78;100.00;98201.22;5044715;28;20556;-77
2022/05/02 08:33:25;;;;;;;9.10;6.97;;;12.40;99.90;;;12.89;100.00;98203.28;5044083;28;20910;-77
2022/05/02 08:36:05;;;;;;;11.90;6.70;;;12.40;99.90;;;12.96;100.00;98209.34;5044394;28;20471;-77
2022/05/02 08:38:56;;;;;;;11.43;6.63;;;12.50;99.90;;;13.08;100.00;98202.53;5046078;28;20481;-76
2022/05/02 08:42:13;;;;;;;9.10;6.93;;;12.70;99.90;;;13.21;100.00;98197.31;5046957;28;20465;-77
2022/05/02 08:45:35;;;;;;;11.67;5.90;;;12.80;99.90;;;13.35;100.00;98198.16;5045940;28;20449;-77
2022/05/02 08:52:42;;;;;;;11.10;7.10;;;13.00;99.90;;;13.56;100.00;98198.78;5018536;28;20462;-77
2022/05/02 08:56:10;;;;;;;9.17;6.60;;;13.00;99.90;;;13.61;100.00;98198.97;5045763;28;20604;-77
2022/05/02 08:59:13;;;;;;;10.47;6.90;;;13.00;99.90;;;13.64;100.00;98196.97;5046382;28;20947;-77
2022/05/02 09:02:34;;;;;;;10.67;7.20;;;13.10;99.90;;;13.69;100.00;98197.94;5045706;28;20506;-76
2022/05/02 09:05:45;;;;;;;11.43;6.70;;;13.20;99.90;;;13.75;100.00;98199.75;5045213;28;20461;-77
2022/05/02 09:09:23;;;;;;;7.77;6.10;;;13.20;99.90;;;13.81;100.00;98198.16;5046706;28;20461;-76
2022/05/02 09:12:41;;;;;;;12.93;5.80;;;13.30;99.90;;;13.88;100.00;98194.50;5043924;28;20456;-77
2022/05/02 09:15:48;;;;;;;8.80;6.10;;;13.40;99.90;;;13.98;100.00;98194.09;5043731;28;20490;-77
2022/05/02 09:19:20;;;;;;;8.40;5.40;;;13.50;99.90;;;14.16;100.00;98188.19;5043492;28;21044;-76
2022/05/02 09:22:47;;;;;;;7.57;5.90;;;13.70;99.90;;;14.33;100.00;98186.72;5017921;28;20465;-77
2022/05/02 09:25:35;;;;;;;12.90;6.37;;;13.90;99.90;;;14.47;100.00;98194.38;5046408;28;20461;-77
2022/05/02 09:28:20;;;;;;;8.57;6.17;;;14.00;99.90;;;14.57;100.00;98192.16;5045113;28;20449;-77
2022/05/02 09:31:21;;;;;;;9.33;6.53;;;14.20;99.90;;;14.69;100.00;98188.84;5043411;28;20994;-77
2022/05/02 09:34:16;;;;;;;8.53;6.43;;;14.30;99.90;;;14.75;100.00;98177.50;5045099;28;20453;-77
2022/05/02 09:36:55;;;;;;;9.97;6.50;;;14.40;99.90;;;14.83;98.34;98185.13;5042407;28;20471;-77
2022/05/02 09:39:39;;;;;;;10.53;6.20;;;14.50;99.90;;;14.92;99.62;98175.97;5045038;28;20453;-77
2022/05/02 09:42:45;;;;;;;10.17;6.20;;;14.50;99.90;;;15.02;100.00;98176.31;5043236;28;20484;-77
2022/05/02 09:52:13;;;;;;;8.60;6.10;;;14.60;99.90;;;15.19;92.49;98174.78;5041924;28;20488;-77
2022/05/02 09:58:32;;;;;;;10.10;6.50;;;14.80;99.50;;;15.30;90.42;98162.75;5044656;28;20456;-77
2022/05/02 10:01:13;;;;;;;10.93;6.10;;;14.90;98.90;;;15.35;90.18;98161.09;5042202;28;20466;-77
2022/05/02 10:04:21;;;;;;;9.30;6.10;;;14.90;98.80;;;15.40;87.64;98168.38;5043428;28;20465;-76
2022/05/02 10:06:53;;;;;;;10.43;6.40;;;15.00;98.30;;;15.43;84.45;98166.09;5043579;28;20462;-76
2022/05/02 10:09:45;;;;;;;10.20;6.13;;;15.00;97.40;;;15.50;85.08;98155.53;5043393;28;20465;-77
2022/05/02 10:12:34;;;;;;;9.90;5.63;;;15.00;97.60;;;15.58;83.09;98155.28;5043567;28;20477;-77
2022/05/02 10:15:29;;;;;;;6.90;5.77;;;15.10;97.50;;;15.64;83.57;98154.41;5042100;28;20496;-77
2022/05/02 10:18:47;;;;;;;11.30;6.70;;;15.10;97.30;;;15.73;80.58;98154.91;5043444;28;20891;-77
2022/05/02 10:22:16;;;;;;;7.20;5.60;;;15.20;96.90;;;15.84;82.32;98151.56;4982413;28;20469;-77
2022/05/02 10:25:06;;;;;;;13.90;5.77;;;15.30;97.40;;;15.98;82.37;98145.16;4983738;28;20526;-77
2022/05/02 10:27:57;;;;;;;10.83;5.90;;;15.60;97.20;;;16.09;83.02;98152.34;5041141;28;20457;-77
2022/05/02 10:30:42;;;;;;;8.90;6.00;;;15.70;97.50;;;16.18;83.08;98143.09;5044815;28;20457;-77
2022/05/02 10:33:22;;;;;;;8.07;5.50;;;15.80;97.50;;;16.26;82.32;98142.81;5043031;28;20464;-77
2022/05/02 10:35:53;;;;;;;7.23;5.50;;;15.90;97.30;;;16.29;78.66;98131.81;5043418;28;20491;-77
2022/05/02 10:38:32;;;;;;;8.37;5.37;;;15.90;96.20;;;16.32;78.96;98134.00;5044640;28;20445;-77
2022/05/02 10:41:13;;;;;;;5.87;4.70;;;16.00;96.40;;;16.39;78.93;98132.09;5044035;28;20708;-77
2022/05/02 10:43:51;;;;;;;6.60;4.40;;;16.00;96.40;;;16.47;78.81;98129.16;5043798;28;20453;-77
2022/05/02 10:46:23;;;;;;;10.93;6.20;;;16.20;96.50;;;16.56;76.76;98125.19;5043342;28;20489;-77
2022/05/02 10:49:03;;;;;;;10.50;5.00;;;16.20;95.90;;;16.68;76.45;98119.16;5042284;28;20457;-77
2022/05/02 10:51:55;;;;;;;9.53;5.57;;;16.30;95.80;;;16.74;76.39;98119.09;5041799;28;21002;-77
2022/05/02 10:54:43;;;;;;;7.20;4.90;;;16.30;95.80;;;16.85;76.47;98117.50;5043844;28;20446;-77
2022/05/02 10:57:31;;;;;;;8.77;4.57;;;16.40;96.00;;;16.91;74.86;98122.69;5042857;28;20519;-77
2022/05/02 11:00:07;;;;;;;7.27;4.50;;;16.40;95.40;;;16.94;71.75;98113.50;5040941;28;20993;-79
2022/05/02 11:02:59;;;;;;;8.27;4.50;;;16.40;94.70;;;16.97;72.34;98107.78;5041523;28;20813;-77
2022/05/02 11:05:37;;;;;;;7.43;5.00;;;16.50;95.00;;;17.03;70.83;98107.69;5040905;28;20462;-77
2022/05/02 11:08:38;;;;;;;8.60;5.30;;;16.60;94.60;;;17.07;65.93;98110.69;5043968;28;20964;-77
2022/05/02 11:11:08;;;;;;;6.40;5.03;;;16.70;93.20;;;17.08;66.78;98107.81;5043495;28;20460;-76
2022/05/02 11:13:46;;;;;;;8.63;5.10;;;16.80;93.60;;;17.13;71.44;98111.59;5042403;28;20515;-77
2022/05/02 11:16:26;;;;;;;10.63;5.07;;;16.70;95.10;;;17.14;74.81;98098.19;5044364;28;20512;-77
2022/05/02 11:22:23;;;;;;;14.73;5.50;;;16.70;96.00;;;17.21;77.51;98093.59;5043757;28;20487;-77
2022/05/02 11:25:06;;;;;;;5.93;4.40;;;16.70;96.70;;;17.21;76.13;98101.53;5045095;28;20973;-77
2022/05/02 11:28:17;;;;;;;7.90;5.00;;;16.70;96.10;;;17.21;74.90;98098.06;5044758;28;20441;-76
2022/05/02 11:30:56;;;;;;;7.10;4.50;;;16.70;95.80;;;17.21;74.01;98095.44;5044412;28;20456;-77
2022/05/02 11:33:39;;;;;;;9.40;4.10;;;16.60;95.40;;;17.26;74.21;98088.41;5041610;28;20461;-77
2022/05/02 11:36:15;;;;;;;8.43;4.97;;;16.70;95.50;;;17.27;74.31;98097.97;5042353;28;20504;-76
2022/05/02 11:39:00;;;;;;;12.10;4.73;;;16.80;95.50;;;17.32;72.85;98102.56;5041981;28;20502;-77
2022/05/02 11:41:32;;;;;;;8.23;5.30;;;16.70;94.90;;;17.34;70.69;98093.38;5041317;28;20544;-78
2022/05/02 11:44:13;;;;;;;8.40;4.63;;;16.80;94.40;;;17.40;68.90;98095.09;5043964;28;20826;-77
2022/05/02 11:47:07;;;;;;;5.87;4.23;;;16.80;93.80;;;17.43;66.12;98092.00;5042300;28;20855;-77
2022/05/02 11:49:54;;;;;;;7.13;4.47;;;16.90;93.10;;;17.47;64.84;98089.69;5043220;28;21005;-77
2022/05/02 11:52:33;;;;;;;5.20;3.80;;;17.00;93.10;;;17.54;65.25;98082.44;5044205;28;20484;-77
2022/05/02 11:55:08;;;;;;;8.20;4.63;;;17.10;93.30;;;17.58;64.85;98086.28;5043717;28;20458;-77
2022/05/02 11:57:41;;;;;;;6.67;4.23;;;17.00;93.00;;;17.65;64.90;98083.50;5045242;28;20885;-77
2022/05/02 12:00:16;;;;;;;8.73;4.47;;;17.10;93.20;;;17.69;65.26;98079.38;5045773;28;20485;-77
2022/05/02 12:02:54;;;;;;;6.47;4.40;;;17.20;93.40;;;17.74;64.98;98079.47;5043070;28;20476;-77
2022/05/02 12:05:32;;;;;;;12.03;5.00;;;17.30;93.40;;;17.78;65.40;98073.50;5045483;28;20933;-77
2022/05/02 12:08:06;;;;;;;10.80;5.47;;;17.30;93.40;;;17.82;65.33;98073.84;5045627;28;20479;-77
2022/05/02 12:10:41;;;;;;;7.00;4.63;;;17.30;93.40;;;17.86;64.54;98074.97;5046630;28;20491;-77
2022/05/02 12:13:13;;;;;;;7.03;4.40;;;17.40;93.30;;;17.79;65.75;98076.94;5046259;28;20441;-77
2022/05/02 12:15:58;;;;;;;9.50;5.10;;;17.30;93.70;;;17.65;67.98;98073.75;5045449;28;20477;-76
2022/05/02 12:18:46;;;;;;;9.03;4.87;;;17.00;94.30;;;17.72;68.37;98078.91;5046198;28;20456;-77
2022/05/02 12:21:30;;;;;;;6.10;3.80;;;17.10;94.40;;;17.79;69.13;98083.06;5046531;28;20441;-77
2022/05/02 12:24:03;;;;;;;12.20;5.90;;;17.20;94.70;;;17.80;69.40;98070.63;5044774;28;20460;-77
2022/05/02 12:26:45;;;;;;;7.77;4.80;;;17.20;94.60;;;17.79;68.41;98080.41;5046512;28;20445;-77
2022/05/02 12:29:17;;;;;;;9.73;4.53;;;17.10;94.00;;;17.79;68.29;98075.13;5044453;28;20512;-77
2022/05/02 12:31:56;;;;;;;10.30;4.83;;;17.10;94.30;;;17.80;67.49;98076.72;5046348;28;20449;-77
2022/05/02 12:34:39;;;;;;;6.17;3.90;;;17.10;93.90;;;17.82;66.72;98071.19;5046585;28;20476;-77
2022/05/02 12:37:15;;;;;;;5.60;3.90;;;17.10;93.50;;;17.88;66.99;98072.91;5045640;28;21047;-77